This is the latest recevied weather packets stored in our database for station/object SV2RCS-13. If no packets are shown the sender has not sent any weather packets the latest 10 day(s).
| Time | Temp. | Humidity | Pressure | Rain* | Wind** | Luminosity | Snow |
|---|---|---|---|---|---|---|---|
| 1777363016 | 21.11° C | 34% | 1015.7 hPa | - | - | - | - |
| 1777362417 | 21.67° C | 34% | 1015.5 hPa | - | - | - | - |
| 1777361816 | 20.56° C | 36% | 1015.9 hPa | - | - | - | - |
| 1777361216 | 20° C | 38% | 1016 hPa | - | - | - | - |
| 1777360616 | 20.56° C | 37% | 1015.9 hPa | - | - | - | - |
| 1777360018 | 20° C | 39% | 1016.2 hPa | - | - | - | - |
| 1777359416 | 19.44° C | 39% | 1016.2 hPa | - | - | - | - |
| 1777358816 | 19.44° C | 39% | 1016.3 hPa | - | - | - | - |
| 1777358216 | 18.89° C | 40% | 1016.3 hPa | - | - | - | - |
| 1777357616 | 18.89° C | 40% | 1016.4 hPa | - | - | - | - |
| 1777357015 | 18.89° C | 40% | 1016.3 hPa | - | - | - | - |
| 1777356416 | 18.89° C | 39% | 1016.4 hPa | - | - | - | - |
| 1777355817 | 18.89° C | 38% | 1016.4 hPa | - | - | - | - |
| 1777355217 | 17.78° C | 38% | 1016.7 hPa | - | - | - | - |
| 1777354616 | 19.44° C | 29% | 1016.7 hPa | - | - | - | - |
| 1777354018 | 18.89° C | 34% | 1016.8 hPa | - | - | - | - |
| 1777353417 | 17.78° C | 39% | 1016.7 hPa | - | - | - | - |
| 1777352816 | 17.22° C | 40% | 1016.1 hPa | - | - | - | - |
| 1777352216 | 17.22° C | 35% | 1017 hPa | - | - | - | - |
| 1777351616 | 18.33° C | 34% | 1016.9 hPa | - | - | - | - |
| 1777351015 | 17.78° C | 37% | 1017.3 hPa | - | - | - | - |
| 1777350415 | 14.44° C | 51% | 1017.6 hPa | - | - | - | - |
| 1777349816 | 13.89° C | 49% | 1017.8 hPa | - | - | - | - |
| 1777349215 | 12.78° C | 54% | 1017.9 hPa | - | - | - | - |
| 1777348616 | 12.22° C | 55% | 1017.9 hPa | - | - | - | - |
* Rain since midnight (hover to see other rain measurements)
** Current wind speed in m/s (hover to see current wind gust speed)